createdAt,value
2019-02-27T00:00:49.234Z,4.53
2019-02-27T00:02:42.383Z,4.65
2019-02-27T00:04:35.656Z,4.60
2019-02-27T00:06:28.908Z,4.47
2019-02-27T00:08:21.423Z,5.15
2019-02-27T00:10:14.149Z,5.05
2019-02-27T00:12:06.683Z,5.33
2019-02-27T00:13:59.698Z,5.10
2019-02-27T00:15:52.445Z,4.97
2019-02-27T00:17:45.512Z,4.20
2019-02-27T00:21:30.267Z,4.53
2019-02-27T00:23:24.612Z,4.40
2019-02-27T00:25:18.739Z,5.72
2019-02-27T00:27:14.608Z,4.78
2019-02-27T00:29:06.095Z,5.25
2019-02-27T00:31:00.086Z,5.40
2019-02-27T00:32:53.259Z,5.40
2019-02-27T00:34:46.277Z,5.85
2019-02-27T00:38:31.348Z,4.60
2019-02-27T00:40:24.640Z,5.50
2019-02-27T00:42:20.599Z,5.05
2019-02-27T00:44:12.228Z,4.83
2019-02-27T00:46:05.568Z,5.87
2019-02-27T00:47:58.384Z,5.12
2019-02-27T00:49:51.412Z,5.50
2019-02-27T00:51:45.426Z,4.97
2019-02-27T00:53:38.401Z,5.30
2019-02-27T00:55:30.940Z,4.62
2019-02-27T00:57:23.737Z,5.53
2019-02-27T00:59:16.827Z,5.12
2019-02-27T01:20:55.854Z,4.33
2019-02-27T01:22:48.768Z,5.03
2019-02-27T01:26:34.260Z,4.78
2019-02-27T01:28:27.607Z,4.42
2019-02-27T01:30:23.938Z,5.42
2019-02-27T01:32:16.478Z,5.00
2019-02-27T01:34:11.336Z,4.75
2019-02-27T01:36:04.710Z,4.47
2019-02-27T01:37:57.799Z,4.78
2019-02-27T01:39:50.918Z,4.33
2019-02-27T01:41:44.504Z,4.53
2019-02-27T01:45:31.225Z,3.95
2019-02-27T01:47:24.040Z,4.90
2019-02-27T01:49:17.135Z,3.90
2019-02-27T01:53:07.118Z,3.40
2019-02-27T01:54:58.271Z,3.98
2019-02-27T01:56:51.586Z,4.25
2019-02-27T01:58:44.437Z,4.12
2019-02-27T02:00:38.327Z,3.98
2019-02-27T02:02:31.481Z,4.72
2019-02-27T02:04:24.643Z,4.30
2019-02-27T02:08:13.632Z,3.47
2019-02-27T02:10:08.413Z,4.55
2019-02-27T02:12:08.791Z,4.05
2019-02-27T02:14:29.448Z,3.95
2019-02-27T02:16:37.233Z,3.98
2019-02-27T02:18:35.997Z,3.95
2019-02-27T02:20:40.590Z,4.42
2019-02-27T02:22:41.288Z,4.50
2019-02-27T02:24:49.406Z,3.83
2019-02-27T02:26:51.654Z,4.22
2019-02-27T02:29:08.796Z,4.08
2019-02-27T02:31:13.381Z,4.75
2019-02-27T02:33:15.689Z,3.87
2019-02-27T02:35:32.403Z,4.30
2019-02-27T02:37:33.686Z,4.12
2019-02-27T02:39:36.850Z,3.65
2019-02-27T02:41:53.977Z,3.65
2019-02-27T02:44:06.505Z,3.83
2019-02-27T02:46:08.882Z,3.87
2019-02-27T02:48:06.039Z,3.05
2019-02-27T02:50:02.356Z,3.62
2019-02-27T02:52:07.600Z,3.25
2019-02-27T02:54:28.965Z,4.20
2019-02-27T02:56:34.065Z,3.10
2019-02-27T02:58:48.894Z,3.83
2019-02-27T03:00:48.244Z,3.72
2019-02-27T03:02:57.543Z,3.60
2019-02-27T03:05:23.627Z,3.40
2019-02-27T03:07:24.744Z,3.87
2019-02-27T03:09:30.364Z,3.60
2019-02-27T03:11:42.618Z,3.45
2019-02-27T03:13:47.563Z,3.45
2019-02-27T03:15:52.401Z,3.35
2019-02-27T03:18:11.095Z,3.00
2019-02-27T03:20:19.394Z,3.20
2019-02-27T03:22:21.498Z,3.10
2019-02-27T03:24:40.144Z,3.52
2019-02-27T03:26:57.306Z,3.08
2019-02-27T03:29:17.512Z,3.75
2019-02-27T03:31:36.161Z,3.77
2019-02-27T03:34:07.837Z,3.58
2019-02-27T03:36:15.151Z,3.58
2019-02-27T03:38:23.750Z,3.20
2019-02-27T03:40:28.099Z,3.40
2019-02-27T03:42:46.964Z,2.98
2019-02-27T03:44:49.298Z,3.27
2019-02-27T03:46:57.430Z,4.08
2019-02-27T03:49:11.891Z,3.40
2019-02-27T03:53:16.422Z,2.85
2019-02-27T03:55:12.524Z,3.50
2019-02-27T03:57:20.206Z,3.67
2019-02-27T03:59:47.628Z,3.08
2019-02-27T04:02:08.219Z,3.80
2019-02-27T04:04:13.269Z,3.10
2019-02-27T04:06:29.008Z,3.37
2019-02-27T04:08:34.201Z,3.75
2019-02-27T04:10:30.827Z,3.35
2019-02-27T04:12:21.543Z,3.60
2019-02-27T04:14:31.699Z,4.17
2019-02-27T04:16:28.842Z,2.87
2019-02-27T04:18:19.027Z,3.25
2019-02-27T04:20:15.545Z,3.15
2019-02-27T04:22:06.855Z,3.00
2019-02-27T04:23:59.703Z,3.75
2019-02-27T04:25:52.456Z,2.90
2019-02-27T04:27:45.275Z,3.05
2019-02-27T04:29:41.066Z,2.80
2019-02-27T04:31:32.721Z,2.75
2019-02-27T04:33:25.535Z,3.65
2019-02-27T04:35:18.415Z,3.47
2019-02-27T04:37:11.551Z,3.00
2019-02-27T04:39:05.363Z,3.10
2019-02-27T04:40:59.419Z,3.52
2019-02-27T04:42:52.188Z,3.58
2019-02-27T04:44:45.129Z,2.65
2019-02-27T04:46:38.043Z,3.70
2019-02-27T04:48:30.625Z,3.75
2019-02-27T04:50:23.165Z,4.60
2019-02-27T04:52:15.990Z,2.95
2019-02-27T04:54:09.272Z,2.83
2019-02-27T04:56:02.290Z,2.95
2019-02-27T04:57:55.178Z,3.20
2019-02-27T04:59:49.734Z,2.90
2019-02-27T05:01:42.287Z,3.30
2019-02-27T05:03:35.068Z,3.00
2019-02-27T05:07:20.903Z,2.92
2019-02-27T05:09:13.968Z,3.17
2019-02-27T05:11:06.983Z,2.67
2019-02-27T05:13:00.318Z,3.15
2019-02-27T05:14:53.307Z,3.02
2019-02-27T05:18:40.469Z,3.55
2019-02-27T05:20:33.393Z,4.10
2019-02-27T05:22:26.797Z,3.92
2019-02-27T05:24:20.844Z,2.83
2019-02-27T05:26:13.449Z,3.25
2019-02-27T05:28:06.200Z,3.40
2019-02-27T05:30:00.100Z,3.70
2019-02-27T05:31:54.802Z,3.37
2019-02-27T05:33:47.623Z,3.67
2019-02-27T05:35:40.913Z,3.65
2019-02-27T05:37:36.118Z,3.58
2019-02-27T05:39:28.186Z,3.25
2019-02-27T05:41:21.176Z,3.40
2019-02-27T05:43:14.108Z,3.62
2019-02-27T05:45:10.000Z,3.75
2019-02-27T05:47:02.721Z,3.58
2019-02-27T05:48:56.056Z,3.17
2019-02-27T05:50:49.240Z,3.08
2019-02-27T05:52:42.374Z,3.08
2019-02-27T05:54:35.147Z,3.22
2019-02-27T05:56:27.948Z,2.98
2019-02-27T05:58:22.896Z,3.70
2019-02-27T06:00:18.873Z,3.60
2019-02-27T06:02:13.239Z,3.30
2019-02-27T06:04:06.047Z,3.75
2019-02-27T06:05:58.665Z,2.40
2019-02-27T06:09:44.538Z,3.02
2019-02-27T06:11:37.666Z,3.85
2019-02-27T06:13:30.462Z,3.42
2019-02-27T06:15:26.023Z,3.42
2019-02-27T06:17:17.756Z,3.33
2019-02-27T06:19:10.685Z,3.47
2019-02-27T06:21:03.675Z,3.65
2019-02-27T06:22:57.540Z,2.47
2019-02-27T06:24:50.404Z,2.95
2019-02-27T06:26:43.385Z,3.33
2019-02-27T06:28:36.586Z,4.45
2019-02-27T06:30:30.614Z,3.70
2019-02-27T06:32:24.188Z,3.72
2019-02-27T06:36:09.749Z,4.00
2019-02-27T06:38:02.693Z,3.65
2019-02-27T06:39:55.577Z,4.15
2019-02-27T06:41:49.737Z,4.35
2019-02-27T06:43:43.250Z,4.15
2019-02-27T06:45:36.265Z,3.90
2019-02-27T06:47:29.151Z,3.65
2019-02-27T06:51:14.424Z,4.22
2019-02-27T06:53:07.236Z,3.52
2019-02-27T06:56:54.076Z,4.62
2019-02-27T06:58:29.887Z,3.37
2019-02-27T07:00:19.164Z,3.00
2019-02-27T07:01:54.466Z,3.87
2019-02-27T07:03:32.781Z,4.03
2019-02-27T07:05:07.952Z,4.28
2019-02-27T07:06:42.998Z,4.65
2019-02-27T07:08:18.131Z,4.70
2019-02-27T07:09:55.116Z,4.30
2019-02-27T07:11:30.184Z,5.65
2019-02-27T07:13:05.240Z,5.80
2019-02-27T07:14:40.605Z,4.60
2019-02-27T07:16:33.292Z,4.50
2019-02-27T07:18:26.592Z,4.33
2019-02-27T07:20:23.884Z,3.87
2019-02-27T07:22:14.580Z,3.77
2019-02-27T07:24:07.834Z,4.80
2019-02-27T07:25:42.907Z,4.25
2019-02-27T07:27:18.706Z,4.00
2019-02-27T07:28:53.632Z,4.47
2019-02-27T07:30:28.753Z,4.60
2019-02-27T07:32:03.806Z,3.92
2019-02-27T07:33:40.550Z,4.12
2019-02-27T07:35:16.874Z,3.70
2019-02-27T07:36:51.904Z,3.75
2019-02-27T07:38:27.263Z,4.47
2019-02-27T07:40:02.760Z,4.53
2019-02-27T07:41:56.692Z,3.58
2019-02-27T07:45:42.683Z,4.10
2019-02-27T07:47:56.084Z,4.75
2019-02-27T07:49:49.210Z,4.45
2019-02-27T07:51:42.112Z,5.03
2019-02-27T07:53:35.073Z,4.20
2019-02-27T07:57:21.345Z,5.55
2019-02-27T07:59:13.971Z,4.22
2019-02-27T08:01:06.596Z,4.80
2019-02-27T08:02:59.335Z,3.98
2019-02-27T08:04:54.634Z,4.03
2019-02-27T08:06:46.728Z,4.85
2019-02-27T08:08:39.778Z,7.10
2019-02-27T08:12:26.668Z,4.35
2019-02-27T08:16:12.050Z,4.08
2019-02-27T08:18:05.025Z,7.15
2019-02-27T08:19:58.384Z,5.08
2019-02-27T08:21:51.323Z,5.45
2019-02-27T08:25:38.215Z,5.85
2019-02-27T08:27:31.109Z,4.70
2019-02-27T08:29:33.052Z,4.70
2019-02-27T08:31:28.155Z,5.97
2019-02-27T08:33:21.075Z,4.78
2019-02-27T08:35:16.463Z,4.92
2019-02-27T08:37:09.440Z,5.20
2019-02-27T08:39:02.287Z,5.05
2019-02-27T08:40:58.293Z,4.53
2019-02-27T08:42:51.695Z,6.65
2019-02-27T08:44:45.925Z,6.20
2019-02-27T08:46:39.522Z,6.45
2019-02-27T08:48:32.160Z,6.47
2019-02-27T08:50:25.102Z,6.65
2019-02-27T08:52:18.292Z,5.47
2019-02-27T08:56:03.738Z,7.12
2019-02-27T08:57:57.129Z,6.95
2019-02-27T08:59:59.853Z,6.70
2019-02-27T09:03:47.105Z,7.25
2019-02-27T09:05:39.939Z,7.87
2019-02-27T09:07:33.924Z,7.20
2019-02-27T09:09:27.523Z,7.80
2019-02-27T09:11:20.213Z,8.00
2019-02-27T09:13:12.931Z,5.00
2019-02-27T09:15:07.827Z,9.68
2019-02-27T09:17:00.613Z,11.22
2019-02-27T09:18:53.415Z,8.25
2019-02-27T09:20:47.951Z,8.03
2019-02-27T09:22:40.926Z,9.10
2019-02-27T09:26:26.476Z,9.40
2019-02-27T09:28:19.411Z,8.55
2019-02-27T09:30:15.156Z,9.60
2019-02-27T09:32:09.269Z,9.38
2019-02-27T09:34:02.996Z,8.55
2019-02-27T09:35:56.401Z,9.60
2019-02-27T09:37:51.200Z,9.35
2019-02-27T09:39:43.631Z,10.75
2019-02-27T09:41:36.489Z,9.50
2019-02-27T09:43:29.225Z,9.35
2019-02-27T09:45:27.951Z,8.83
2019-02-27T09:47:23.197Z,8.83
2019-02-27T09:49:15.297Z,9.68
2019-02-27T09:51:09.797Z,9.58
2019-02-27T09:53:03.655Z,9.35
2019-02-27T09:54:57.572Z,9.65
2019-02-27T09:56:50.393Z,8.98
2019-02-27T09:58:45.637Z,8.60
2019-02-27T10:00:49.900Z,9.18
2019-02-27T10:02:46.146Z,10.58
2019-02-27T10:04:37.503Z,10.15
2019-02-27T10:06:30.288Z,9.30
2019-02-27T10:08:25.269Z,9.53
2019-02-27T10:10:17.598Z,7.95
2019-02-27T10:12:10.744Z,9.45
2019-02-27T10:14:03.771Z,8.35
2019-02-27T10:16:00.564Z,9.15
2019-02-27T10:17:51.491Z,8.60
2019-02-27T10:19:44.481Z,9.33
2019-02-27T10:23:31.163Z,9.05
2019-02-27T10:25:24.627Z,8.30
2019-02-27T10:27:17.411Z,8.43
2019-02-27T10:29:10.976Z,10.48
2019-02-27T10:31:05.055Z,8.95
2019-02-27T10:32:58.442Z,7.85
2019-02-27T10:34:53.672Z,9.23
2019-02-27T10:36:47.604Z,9.00
2019-02-27T10:38:40.652Z,8.78
2019-02-27T10:40:33.552Z,8.53
2019-02-27T10:42:26.486Z,9.05
2019-02-27T10:44:19.428Z,9.18
2019-02-27T10:46:12.939Z,8.70
2019-02-27T10:48:06.207Z,9.05
2019-02-27T10:50:01.597Z,9.38
2019-02-27T10:51:54.900Z,8.80
2019-02-27T10:55:39.789Z,9.45
2019-02-27T10:57:38.226Z,8.58
2019-02-27T10:59:27.016Z,8.90
2019-02-27T11:01:19.935Z,8.73
2019-02-27T11:03:13.024Z,8.30
2019-02-27T11:05:07.378Z,8.30
2019-02-27T11:07:00.589Z,8.88
2019-02-27T11:08:53.550Z,8.13
2019-02-27T11:10:46.422Z,9.10
2019-02-27T11:12:39.278Z,9.18
2019-02-27T11:14:33.825Z,8.38
2019-02-27T11:16:27.981Z,9.10
2019-02-27T11:18:21.454Z,8.15
2019-02-27T11:20:14.498Z,7.62
2019-02-27T11:22:07.448Z,8.33
2019-02-27T11:24:00.392Z,7.90
2019-02-27T11:25:56.858Z,8.88
2019-02-27T11:27:48.298Z,9.83
2019-02-27T11:29:41.334Z,8.88
2019-02-27T11:31:34.630Z,9.00
2019-02-27T11:33:32.686Z,8.68
2019-02-27T11:35:25.152Z,9.73
2019-02-27T11:37:17.250Z,10.05
2019-02-27T11:39:11.305Z,9.50
2019-02-27T11:41:04.965Z,8.35
2019-02-27T11:42:57.985Z,8.58
2019-02-27T11:44:52.152Z,8.30
2019-02-27T11:46:45.085Z,9.73
2019-02-27T11:48:37.863Z,9.35
2019-02-27T11:50:31.080Z,9.65
2019-02-27T11:52:27.665Z,9.25
2019-02-27T11:54:18.606Z,9.13
2019-02-27T11:56:11.218Z,8.90
2019-02-27T11:58:05.333Z,8.63
2019-02-27T11:59:58.633Z,8.50
2019-02-27T12:01:55.386Z,9.03
2019-02-27T12:03:46.832Z,9.93
2019-02-27T12:05:40.327Z,10.10
2019-02-27T12:09:25.065Z,9.40
2019-02-27T12:13:10.449Z,8.68
2019-02-27T12:15:03.829Z,8.33
2019-02-27T12:16:56.779Z,9.90
2019-02-27T12:18:49.661Z,7.92
2019-02-27T12:20:42.179Z,8.48
2019-02-27T12:22:35.986Z,9.03
2019-02-27T12:24:28.931Z,9.73
2019-02-27T12:26:21.779Z,9.45
2019-02-27T12:28:18.100Z,8.35
2019-02-27T12:30:18.763Z,10.00
2019-02-27T12:32:12.139Z,9.08
2019-02-27T12:34:05.140Z,8.85
2019-02-27T12:35:57.827Z,9.25
2019-02-27T12:37:50.735Z,7.83
2019-02-27T12:39:43.699Z,8.38
2019-02-27T12:41:36.805Z,8.08
2019-02-27T12:43:29.384Z,8.95
2019-02-27T12:45:25.840Z,8.43
2019-02-27T12:47:19.011Z,8.25
2019-02-27T12:49:11.926Z,6.80
2019-02-27T12:51:04.736Z,7.72
2019-02-27T12:52:57.557Z,7.60
2019-02-27T12:54:50.389Z,7.60
2019-02-27T12:56:44.524Z,7.47
2019-02-27T12:58:37.945Z,7.25
2019-02-27T13:00:32.422Z,6.83
2019-02-27T13:02:35.290Z,6.87
2019-02-27T13:04:20.091Z,6.97
2019-02-27T13:06:13.610Z,6.87
2019-02-27T13:08:06.467Z,7.10
2019-02-27T13:09:59.450Z,7.53
2019-02-27T13:11:52.513Z,6.05
2019-02-27T13:13:45.149Z,6.03
2019-02-27T13:19:24.376Z,5.65
2019-02-27T13:21:20.581Z,7.20
2019-02-27T13:23:12.070Z,6.95
2019-02-27T13:25:05.979Z,6.45
2019-02-27T13:26:58.908Z,5.90
2019-02-27T13:28:53.306Z,5.47
2019-02-27T13:32:39.050Z,5.45
2019-02-27T13:34:32.310Z,5.47
2019-02-27T13:36:25.603Z,6.90
2019-02-27T13:40:27.973Z,5.47
2019-02-27T13:42:20.766Z,5.92
2019-02-27T13:44:13.628Z,5.67
2019-02-27T13:46:06.399Z,5.95
2019-02-27T13:48:04.914Z,7.37
2019-02-27T13:49:53.799Z,6.40
2019-02-27T13:51:46.656Z,8.10
2019-02-27T13:55:32.122Z,7.33
2019-02-27T13:57:25.716Z,7.20
2019-02-27T13:59:19.640Z,7.17
2019-02-27T14:01:12.977Z,7.28
2019-02-27T14:03:06.324Z,6.45
2019-02-27T14:05:00.648Z,8.25
2019-02-27T14:06:55.315Z,8.75
2019-02-27T14:08:48.270Z,7.67
2019-02-27T14:10:40.919Z,7.35
2019-02-27T14:14:27.497Z,7.30
2019-02-27T14:16:20.388Z,7.90
2019-02-27T14:18:13.365Z,7.53
2019-02-27T14:20:10.599Z,7.78
2019-02-27T14:22:07.203Z,7.17
2019-02-27T14:23:59.145Z,6.97
2019-02-27T14:25:51.932Z,7.40
2019-02-27T14:27:47.257Z,6.92
2019-02-27T14:29:41.361Z,8.38
2019-02-27T14:31:34.471Z,6.40
2019-02-27T14:33:27.116Z,7.03
2019-02-27T14:35:19.978Z,6.85
2019-02-27T14:37:16.212Z,6.87
2019-02-27T14:39:09.438Z,6.97
2019-02-27T14:41:03.494Z,6.12
2019-02-27T14:42:56.650Z,6.55
2019-02-27T14:44:49.646Z,6.47
2019-02-27T14:46:45.056Z,6.15
2019-02-27T14:48:37.868Z,6.17
2019-02-27T14:54:16.421Z,5.60
2019-02-27T14:56:12.240Z,5.35
2019-02-27T14:58:05.141Z,4.70
2019-02-27T14:59:57.921Z,5.45
2019-02-27T15:01:50.790Z,5.95
2019-02-27T15:03:44.966Z,6.47
2019-02-27T15:05:43.181Z,6.05
2019-02-27T15:07:34.643Z,5.90
2019-02-27T15:09:27.502Z,5.80
2019-02-27T15:11:20.467Z,5.03
2019-02-27T15:13:13.069Z,5.58
2019-02-27T15:15:10.341Z,5.53
2019-02-27T15:17:03.620Z,5.47
2019-02-27T15:18:56.676Z,5.17
2019-02-27T15:20:52.165Z,5.62
2019-02-27T15:22:45.176Z,5.28
2019-02-27T15:24:38.027Z,5.97
2019-02-27T15:28:22.935Z,5.28
2019-02-27T15:30:17.776Z,5.50
2019-02-27T15:32:10.897Z,4.62
2019-02-27T15:34:03.740Z,5.25
2019-02-27T15:35:56.741Z,5.37
2019-02-27T15:37:51.295Z,4.85
2019-02-27T15:39:44.447Z,5.47
2019-02-27T15:41:38.177Z,5.15
2019-02-27T15:43:31.097Z,5.17
2019-02-27T15:45:25.259Z,5.17
2019-02-27T15:47:19.079Z,5.55
2019-02-27T15:49:12.841Z,5.05
2019-02-27T15:51:06.379Z,5.22
2019-02-27T15:52:59.413Z,5.08
2019-02-27T15:56:45.516Z,5.17
2019-02-27T15:58:38.639Z,5.25
2019-02-27T16:00:31.368Z,4.97
2019-02-27T16:02:24.530Z,5.05
2019-02-27T16:04:20.962Z,5.28
2019-02-27T16:06:11.771Z,4.85
2019-02-27T16:09:57.067Z,4.33
2019-02-27T16:13:43.756Z,5.42
2019-02-27T16:15:36.651Z,5.12
2019-02-27T16:17:31.359Z,4.60
2019-02-27T16:19:24.374Z,5.20
2019-02-27T16:21:17.102Z,4.78
2019-02-27T16:23:10.190Z,5.08
2019-02-27T16:25:03.371Z,4.72
2019-02-27T16:28:50.155Z,5.45
2019-02-27T16:30:43.526Z,4.33
2019-02-27T16:34:32.675Z,5.70
2019-02-27T16:36:23.828Z,4.85
2019-02-27T16:38:16.785Z,5.87
2019-02-27T16:40:17.981Z,5.15
2019-02-27T16:42:10.091Z,4.92
2019-02-27T16:44:03.276Z,5.87
2019-02-27T16:45:56.801Z,5.45
2019-02-27T16:47:49.900Z,5.10
2019-02-27T16:49:43.265Z,5.33
2019-02-27T16:53:28.751Z,5.72
2019-02-27T16:55:23.709Z,4.83
2019-02-27T16:57:21.144Z,5.05
2019-02-27T16:59:12.253Z,4.75
2019-02-27T17:01:05.490Z,4.40
2019-02-27T17:02:58.379Z,4.70
2019-02-27T17:04:51.774Z,4.55
2019-02-27T17:06:44.261Z,5.28
2019-02-27T17:08:36.899Z,3.98
2019-02-27T17:10:32.180Z,5.22
2019-02-27T17:12:25.682Z,4.90
2019-02-27T17:16:11.531Z,5.10
2019-02-27T17:18:04.602Z,5.47
2019-02-27T17:21:50.098Z,4.70
2019-02-27T17:25:37.005Z,4.37
2019-02-27T17:27:30.089Z,4.90
2019-02-27T17:29:26.408Z,5.62
2019-02-27T17:31:17.600Z,5.65
2019-02-27T17:33:10.442Z,4.47
2019-02-27T17:35:04.372Z,4.40
2019-02-27T17:36:58.894Z,3.95
2019-02-27T17:38:51.727Z,4.67
2019-02-27T17:40:45.318Z,5.40
2019-02-27T17:42:38.165Z,4.70
2019-02-27T17:44:31.574Z,6.15
2019-02-27T17:46:24.656Z,5.78
2019-02-27T17:48:17.467Z,5.72
2019-02-27T17:50:12.137Z,5.72
2019-02-27T17:52:11.117Z,6.17
2019-02-27T17:53:59.858Z,5.65
2019-02-27T17:57:46.352Z,5.08
2019-02-27T17:59:42.446Z,5.80
2019-02-27T18:01:34.032Z,5.20
2019-02-27T18:03:26.828Z,4.95
2019-02-27T18:05:22.401Z,4.78
2019-02-27T18:07:14.440Z,6.08
2019-02-27T18:12:54.025Z,5.28
2019-02-27T18:14:47.002Z,5.30
2019-02-27T18:16:40.098Z,6.10
2019-02-27T18:18:33.124Z,6.45
2019-02-27T18:20:25.824Z,4.22
2019-02-27T18:22:19.155Z,5.05
2019-02-27T18:24:12.002Z,6.55
2019-02-27T18:26:05.215Z,6.33
2019-02-27T18:27:59.732Z,6.47
2019-02-27T18:29:52.675Z,7.45
2019-02-27T18:31:45.492Z,7.17
2019-02-27T18:35:32.143Z,6.65
2019-02-27T18:37:25.359Z,7.47
2019-02-27T18:39:18.125Z,7.45
2019-02-27T18:41:14.495Z,5.80
2019-02-27T18:43:05.636Z,7.28
2019-02-27T18:44:58.339Z,6.40
2019-02-27T18:46:50.930Z,7.70
2019-02-27T18:48:44.430Z,6.20
2019-02-27T18:50:38.564Z,7.05
2019-02-27T18:52:31.532Z,7.92
2019-02-27T18:54:25.237Z,8.23
2019-02-27T18:56:18.649Z,6.10
2019-02-27T19:00:12.532Z,6.95
2019-02-27T19:02:07.395Z,6.80
2019-02-27T19:04:01.213Z,6.72
2019-02-27T19:05:55.713Z,8.85
2019-02-27T19:07:53.760Z,8.00
2019-02-27T19:09:43.478Z,9.20
2019-02-27T19:11:36.512Z,11.38
2019-02-27T19:13:31.749Z,10.50
2019-02-27T19:15:26.104Z,9.73
2019-02-27T19:17:19.228Z,9.35
2019-02-27T19:19:13.828Z,9.70
2019-02-27T19:21:07.513Z,8.95
2019-02-27T19:23:01.071Z,10.03
2019-02-27T19:24:54.333Z,9.50
2019-02-27T19:26:49.442Z,10.30
2019-02-27T19:28:42.936Z,10.32
2019-02-27T19:32:29.349Z,9.48
2019-02-27T19:36:19.265Z,15.13
2019-02-27T19:38:12.668Z,14.55
2019-02-27T19:40:08.431Z,12.68
2019-02-27T19:41:52.196Z,14.00
2019-02-27T19:43:45.961Z,15.40
2019-02-27T19:45:42.148Z,15.88
2019-02-27T19:47:36.239Z,14.43
2019-02-27T19:49:30.609Z,14.63
2019-02-27T19:51:25.023Z,12.82
2019-02-27T19:53:19.450Z,13.28
2019-02-27T19:55:14.007Z,12.00
2019-02-27T19:57:08.614Z,13.62
2019-02-27T19:59:03.705Z,13.95
2019-02-27T20:00:58.060Z,12.40
2019-02-27T20:02:57.869Z,13.48
2019-02-27T20:04:48.386Z,13.65
2019-02-27T20:06:42.984Z,12.68
2019-02-27T20:08:37.430Z,12.10
2019-02-27T20:10:33.244Z,11.90
2019-02-27T20:12:28.731Z,13.13
2019-02-27T20:14:23.248Z,12.13
2019-02-27T20:16:20.469Z,11.43
2019-02-27T20:18:13.319Z,11.20
2019-02-27T20:20:09.514Z,12.40
2019-02-27T20:22:04.295Z,10.95
2019-02-27T20:24:01.411Z,11.68
2019-02-27T20:25:56.241Z,12.98
2019-02-27T20:27:50.638Z,11.35
2019-02-27T20:29:45.080Z,9.30
2019-02-27T20:31:39.718Z,10.13
2019-02-27T20:33:34.254Z,10.98
2019-02-27T20:35:29.661Z,9.40
2019-02-27T20:37:24.119Z,9.65
2019-02-27T20:39:23.236Z,10.03
2019-02-27T20:41:18.589Z,9.53
2019-02-27T20:43:12.959Z,9.48
2019-02-27T20:45:13.164Z,9.45
2019-02-27T20:47:07.820Z,10.05
2019-02-27T20:49:02.116Z,10.23
2019-02-27T20:51:02.753Z,9.50
2019-02-27T20:52:55.494Z,10.15
2019-02-27T20:54:49.713Z,11.15
2019-02-27T20:56:44.382Z,11.50
2019-02-27T20:58:38.640Z,9.30
2019-02-27T21:00:35.954Z,8.55
2019-02-27T21:02:29.077Z,9.80
2019-02-27T21:04:23.451Z,8.75
2019-02-27T21:06:18.221Z,7.67
2019-02-27T21:08:12.954Z,8.85
2019-02-27T21:10:20.148Z,9.05
2019-02-27T21:12:12.614Z,8.35
2019-02-27T21:14:07.304Z,9.05
2019-02-27T21:16:03.961Z,8.13
2019-02-27T21:17:39.977Z,8.33
2019-02-27T21:19:17.598Z,8.73
2019-02-27T21:20:54.386Z,8.03
2019-02-27T21:22:30.685Z,8.28
2019-02-27T21:24:07.084Z,7.30
2019-02-27T21:25:46.160Z,7.50
2019-02-27T21:27:21.404Z,6.67
2019-02-27T21:28:58.934Z,7.67
2019-02-27T21:30:36.775Z,6.35
2019-02-27T21:32:14.162Z,6.67
2019-02-27T21:33:50.051Z,7.95
2019-02-27T21:35:29.674Z,8.08
2019-02-27T21:37:07.223Z,7.28
2019-02-27T21:38:43.917Z,6.22
2019-02-27T21:40:20.396Z,6.22
2019-02-27T21:42:18.547Z,7.37
2019-02-27T21:44:08.666Z,6.03
2019-02-27T21:46:02.638Z,6.00
2019-02-27T21:47:56.388Z,5.22
2019-02-27T21:51:41.749Z,5.58
2019-02-27T21:53:34.614Z,6.28
2019-02-27T21:57:19.758Z,6.55
2019-02-27T22:01:04.654Z,5.25
2019-02-27T22:03:03.654Z,5.55
2019-02-27T22:04:53.246Z,6.17
2019-02-27T22:06:46.087Z,4.72
2019-02-27T22:08:39.548Z,4.37
2019-02-27T22:10:32.844Z,4.33
2019-02-27T22:14:17.968Z,4.78
2019-02-27T22:16:10.838Z,4.45
2019-02-27T22:18:03.542Z,3.95
2019-02-27T22:19:56.625Z,4.20
2019-02-27T22:21:49.544Z,3.87
2019-02-27T22:23:44.874Z,4.00
2019-02-27T22:25:36.852Z,3.77
2019-02-27T22:27:29.650Z,4.10
2019-02-27T22:31:14.529Z,3.87
2019-02-27T22:33:07.287Z,4.03
2019-02-27T22:35:02.797Z,3.70
2019-02-27T22:36:56.025Z,3.15
2019-02-27T22:38:48.729Z,3.55
2019-02-27T22:40:41.533Z,3.70
2019-02-27T22:42:34.529Z,3.83
2019-02-27T22:44:29.226Z,3.67
2019-02-27T22:46:21.236Z,3.40
2019-02-27T22:48:14.042Z,2.77
2019-02-27T22:50:11.029Z,2.92
2019-02-27T22:52:05.355Z,3.72
2019-02-27T22:53:59.432Z,3.25
2019-02-27T22:55:53.630Z,3.40
2019-02-27T22:57:46.441Z,3.50
2019-02-27T22:59:39.308Z,3.37
2019-02-27T23:01:49.359Z,3.50
2019-02-27T23:03:44.671Z,3.55
2019-02-27T23:05:38.196Z,3.15
2019-02-27T23:07:31.908Z,3.42
2019-02-27T23:09:25.889Z,3.08
2019-02-27T23:11:19.214Z,3.08
2019-02-27T23:13:12.699Z,3.27
2019-02-27T23:15:07.472Z,3.10
2019-02-27T23:17:00.609Z,3.40
2019-02-27T23:18:54.602Z,3.12
2019-02-27T23:20:47.450Z,3.22
2019-02-27T23:22:41.896Z,3.37
2019-02-27T23:24:34.534Z,3.42
2019-02-27T23:28:19.868Z,2.75
2019-02-27T23:30:15.813Z,3.40
2019-02-27T23:32:07.169Z,3.25
2019-02-27T23:33:59.948Z,3.22
2019-02-27T23:35:52.681Z,3.08
2019-02-27T23:37:45.196Z,2.72
2019-02-27T23:39:39.619Z,2.83
2019-02-27T23:41:32.460Z,3.12
2019-02-27T23:43:25.303Z,3.75
2019-02-27T23:45:17.859Z,2.65
2019-02-27T23:47:10.457Z,2.77
2019-02-27T23:49:03.248Z,2.65
2019-02-27T23:50:56.329Z,2.47
2019-02-27T23:52:49.283Z,3.30
2019-02-27T23:54:42.084Z,2.67
2019-02-27T23:56:34.749Z,2.52
2019-02-27T23:58:29.538Z,3.33
